createdAt,value
2023-05-03T00:00:32.304Z,97982.50
2023-05-03T00:03:04.928Z,98005.91
2023-05-03T00:05:33.324Z,97994.50
2023-05-03T00:08:02.391Z,98000.44
2023-05-03T00:10:30.678Z,98006.59
2023-05-03T00:12:58.940Z,97979.94
2023-05-03T00:15:27.345Z,97973.75
2023-05-03T00:17:55.645Z,97997.88
2023-05-03T00:20:25.462Z,97995.34
2023-05-03T00:22:53.654Z,97999.59
2023-05-03T00:25:21.839Z,97998.84
2023-05-03T00:27:50.033Z,97961.75
2023-05-03T00:30:19.490Z,98002.16
2023-05-03T00:32:47.765Z,97952.97
2023-05-03T00:35:16.028Z,97973.75
2023-05-03T00:37:45.601Z,97980.56
2023-05-03T00:40:16.528Z,97947.91
2023-05-03T00:42:44.688Z,97993.44
2023-05-03T00:45:13.123Z,97969.38
2023-05-03T00:47:41.650Z,98000.28
2023-05-03T00:50:12.123Z,98004.84
2023-05-03T00:52:41.996Z,98006.59
2023-05-03T00:55:12.915Z,98008.09
2023-05-03T00:57:41.198Z,98010.13
2023-05-03T01:00:10.835Z,97982.38
2023-05-03T01:02:39.176Z,98007.56
2023-05-03T01:05:08.534Z,98004.78
2023-05-03T01:07:45.288Z,97861.81
2023-05-03T01:10:24.479Z,97997.00
2023-05-03T01:12:59.657Z,97933.31
2023-05-03T01:15:38.372Z,97991.50
2023-05-03T01:18:12.662Z,97962.16
2023-05-03T01:20:44.967Z,97980.28
2023-05-03T01:23:19.485Z,97994.63
2023-05-03T01:25:49.407Z,97991.03
2023-05-03T01:28:17.639Z,97982.94
2023-05-03T01:30:47.700Z,97979.50
2023-05-03T01:33:25.637Z,97971.00
2023-05-03T01:35:57.092Z,97984.59
2023-05-03T01:38:25.594Z,97986.31
2023-05-03T01:40:58.070Z,97962.50
2023-05-03T01:43:27.074Z,97870.41
2023-05-03T01:45:55.838Z,97990.41
2023-05-03T01:48:24.024Z,97985.19
2023-05-03T01:50:52.224Z,97959.16
2023-05-03T01:53:20.532Z,97989.59
2023-05-03T01:55:48.713Z,97987.03
2023-05-03T01:58:18.287Z,97970.66
2023-05-03T02:00:46.931Z,97987.16
2023-05-03T02:03:15.194Z,97977.78
2023-05-03T02:05:43.380Z,97955.38
2023-05-03T02:08:11.677Z,97987.97
2023-05-03T02:10:39.880Z,97981.97
2023-05-03T02:13:07.989Z,97986.09
2023-05-03T02:15:37.650Z,97989.69
2023-05-03T02:18:06.136Z,97984.28
2023-05-03T02:20:37.873Z,97978.22
2023-05-03T02:23:06.308Z,97887.97
2023-05-03T02:25:34.508Z,97987.84
2023-05-03T02:28:02.934Z,97981.63
2023-05-03T02:30:31.179Z,97977.31
2023-05-03T02:33:00.829Z,97948.03
2023-05-03T02:35:29.139Z,97943.00
2023-05-03T02:37:57.633Z,97980.75
2023-05-03T02:40:25.878Z,97977.22
2023-05-03T02:42:54.125Z,97980.53
2023-05-03T02:45:22.394Z,97965.97
2023-05-03T02:47:50.730Z,97973.66
2023-05-03T02:50:20.386Z,97967.69
2023-05-03T02:52:48.619Z,97961.94
2023-05-03T02:55:16.908Z,97951.09
2023-05-03T02:57:45.149Z,97974.53
2023-05-03T03:00:15.424Z,97970.28
2023-05-03T03:02:43.749Z,97969.41
2023-05-03T03:05:12.377Z,97882.44
2023-05-03T03:07:42.036Z,97977.44
2023-05-03T03:10:11.301Z,97959.38
2023-05-03T03:12:39.954Z,97983.66
2023-05-03T03:15:09.540Z,97981.84
2023-05-03T03:17:39.588Z,97976.59
2023-05-03T03:20:11.553Z,97956.06
2023-05-03T03:22:41.542Z,97981.69
2023-05-03T03:25:11.149Z,97985.03
2023-05-03T03:27:40.011Z,97980.78
2023-05-03T03:30:10.556Z,97950.56
2023-05-03T03:32:38.767Z,97975.59
2023-05-03T03:35:08.653Z,97989.56
2023-05-03T03:37:36.886Z,97992.19
2023-05-03T03:40:08.273Z,97995.50
2023-05-03T03:42:36.708Z,97971.19
2023-05-03T03:45:05.879Z,97994.59
2023-05-03T03:47:34.140Z,97986.03
2023-05-03T03:50:02.488Z,97997.88
2023-05-03T03:52:31.233Z,97970.28
2023-05-03T03:54:59.456Z,97939.31
2023-05-03T03:57:30.540Z,97966.41
2023-05-03T03:59:59.365Z,97998.94
2023-05-03T04:02:28.779Z,97993.38
2023-05-03T04:04:57.107Z,97999.53
2023-05-03T04:07:25.291Z,97999.53
2023-05-03T04:09:53.443Z,97984.84
2023-05-03T04:12:21.578Z,98003.88
2023-05-03T04:14:51.412Z,97972.09
2023-05-03T04:17:19.674Z,98011.63
2023-05-03T04:19:48.203Z,98026.38
2023-05-03T04:22:16.258Z,98021.66
2023-05-03T04:24:46.025Z,97867.84
2023-05-03T04:27:14.944Z,98015.03
2023-05-03T04:29:43.349Z,98000.31
2023-05-03T04:32:14.577Z,98018.63
2023-05-03T04:34:43.510Z,98020.13
2023-05-03T04:37:11.680Z,98027.09
2023-05-03T04:39:39.968Z,98016.56
2023-05-03T04:42:09.067Z,97904.66
2023-05-03T04:44:37.400Z,97966.56
2023-05-03T04:47:05.660Z,98011.47
2023-05-03T04:49:35.811Z,98007.66
2023-05-03T04:52:04.063Z,98030.03
2023-05-03T04:54:32.333Z,98007.56
2023-05-03T04:57:00.529Z,98028.84
2023-05-03T04:59:28.793Z,98019.81
2023-05-03T05:01:56.995Z,98032.72
2023-05-03T05:04:25.361Z,98024.97
2023-05-03T05:06:55.912Z,98025.19
2023-05-03T05:09:26.049Z,98039.44
2023-05-03T05:11:56.784Z,98042.06
2023-05-03T05:16:50.923Z,98028.75
2023-05-03T05:19:19.197Z,98045.38
2023-05-03T05:21:48.215Z,98046.00
2023-05-03T05:24:17.769Z,98040.47
2023-05-03T05:26:46.032Z,98010.09
2023-05-03T05:29:14.227Z,98028.84
2023-05-03T05:31:42.534Z,98042.53
2023-05-03T05:34:10.947Z,98042.38
2023-05-03T05:36:39.085Z,98046.72
2023-05-03T05:39:07.459Z,98046.31
2023-05-03T05:41:37.315Z,98010.94
2023-05-03T05:44:05.985Z,98052.00
2023-05-03T05:46:34.224Z,98044.69
2023-05-03T05:49:02.388Z,98058.44
2023-05-03T05:51:31.840Z,98055.69
2023-05-03T05:54:00.084Z,98064.16
2023-05-03T05:56:28.367Z,98045.19
2023-05-03T05:58:57.947Z,98033.69
2023-05-03T06:01:27.127Z,98060.91
2023-05-03T06:03:56.593Z,98059.84
2023-05-03T06:06:25.028Z,98063.25
2023-05-03T06:08:53.256Z,98065.59
2023-05-03T06:11:21.602Z,97959.28
2023-05-03T06:13:49.919Z,98063.13
2023-05-03T06:16:19.562Z,98003.81
2023-05-03T06:18:47.778Z,98064.16
2023-05-03T06:21:16.252Z,98070.81
2023-05-03T06:23:44.546Z,98073.31
2023-05-03T06:26:12.769Z,98076.81
2023-05-03T06:28:40.955Z,98070.38
2023-05-03T06:31:09.412Z,98078.09
2023-05-03T06:33:39.070Z,98080.09
2023-05-03T06:36:08.401Z,98077.16
2023-05-03T06:38:36.792Z,98051.84
2023-05-03T06:41:05.030Z,98084.47
2023-05-03T06:43:33.213Z,98089.28
2023-05-03T06:46:01.442Z,98091.00
2023-05-03T06:48:29.757Z,98084.06
2023-05-03T06:50:59.471Z,98035.03
2023-05-03T06:53:29.068Z,98089.41
2023-05-03T06:55:57.531Z,98084.38
2023-05-03T06:58:25.760Z,98099.84
2023-05-03T07:00:54.606Z,98080.09
2023-05-03T07:03:23.025Z,98090.81
2023-05-03T07:05:51.297Z,98077.41
2023-05-03T07:08:20.867Z,98074.38
2023-05-03T07:10:49.042Z,98089.81
2023-05-03T07:13:17.221Z,98059.03
2023-05-03T07:15:46.185Z,98058.53
2023-05-03T07:18:14.411Z,98040.28
2023-05-03T07:20:42.847Z,98087.47
2023-05-03T07:23:11.135Z,98086.28
2023-05-03T07:25:40.912Z,98084.97
2023-05-03T07:28:09.231Z,98067.59
2023-05-03T07:30:37.489Z,98090.72
2023-05-03T07:33:05.973Z,98093.50
2023-05-03T07:35:34.296Z,98082.44
2023-05-03T07:38:02.496Z,98062.25
2023-05-03T07:40:33.305Z,98084.28
2023-05-03T07:43:03.366Z,98082.63
2023-05-03T07:45:31.674Z,98057.22
2023-05-03T07:47:59.883Z,98086.56
2023-05-03T07:50:28.064Z,98074.50
2023-05-03T07:52:56.691Z,98080.13
2023-05-03T07:55:25.292Z,98070.00
2023-05-03T07:57:58.533Z,97977.63
2023-05-03T08:00:28.460Z,98071.63
2023-05-03T08:02:56.808Z,98084.69
2023-05-03T08:05:25.482Z,98085.41
2023-05-03T08:07:53.919Z,98086.16
2023-05-03T08:10:22.679Z,98031.63
2023-05-03T08:12:51.512Z,98030.31
2023-05-03T08:15:19.891Z,98088.53
2023-05-03T08:17:49.532Z,98094.78
2023-05-03T08:20:17.755Z,98093.00
2023-05-03T08:22:46.890Z,98079.41
2023-05-03T08:25:17.098Z,98007.44
2023-05-03T08:27:45.281Z,98089.28
2023-05-03T08:30:13.755Z,98087.56
2023-05-03T08:32:42.079Z,98089.66
2023-05-03T08:35:14.069Z,98100.03
2023-05-03T08:37:43.444Z,98088.88
2023-05-03T08:40:13.740Z,98092.56
2023-05-03T08:42:43.219Z,98056.81
2023-05-03T08:45:14.357Z,98098.38
2023-05-03T08:47:45.094Z,98092.94
2023-05-03T08:50:16.602Z,98095.53
2023-05-03T08:52:45.678Z,98098.38
2023-05-03T08:55:14.190Z,98090.66
2023-05-03T08:57:42.584Z,98088.72
2023-05-03T09:00:12.993Z,98058.28
2023-05-03T09:02:42.035Z,98096.63
2023-05-03T09:05:41.458Z,98107.78
2023-05-03T09:08:11.315Z,98101.91
2023-05-03T09:10:41.355Z,98097.88
2023-05-03T09:13:10.403Z,98098.34
2023-05-03T09:15:38.698Z,98098.53
2023-05-03T09:18:12.109Z,98077.84
2023-05-03T09:20:42.797Z,98102.19
2023-05-03T09:23:11.676Z,98102.31
2023-05-03T09:25:47.386Z,98053.59
2023-05-03T09:28:17.162Z,98097.69
2023-05-03T09:30:45.875Z,97860.38
2023-05-03T09:33:19.381Z,98084.50
2023-05-03T09:35:59.764Z,98093.63
2023-05-03T09:38:29.260Z,98103.44
2023-05-03T09:40:57.768Z,98001.25
2023-05-03T09:43:26.058Z,98092.63
2023-05-03T09:45:54.391Z,98089.34
2023-05-03T09:48:27.310Z,98058.53
2023-05-03T09:50:55.551Z,98088.63
2023-05-03T09:53:26.376Z,98072.41
2023-05-03T09:55:56.181Z,98087.47
2023-05-03T09:58:26.058Z,98079.81
2023-05-03T10:00:55.754Z,98078.34
2023-05-03T10:03:29.692Z,98090.72
2023-05-03T10:05:59.258Z,98103.13
2023-05-03T10:08:34.742Z,98086.84
2023-05-03T10:11:04.942Z,98091.28
2023-05-03T10:13:33.339Z,98065.47
2023-05-03T10:16:06.964Z,98080.84
2023-05-03T10:18:39.222Z,98058.16
2023-05-03T10:21:13.621Z,98024.44
2023-05-03T10:24:14.255Z,98080.88
2023-05-03T10:26:43.628Z,98039.28
2023-05-03T10:29:52.456Z,98074.53
2023-05-03T10:32:34.267Z,98079.56
2023-05-03T10:35:05.917Z,98081.06
2023-05-03T10:37:36.288Z,98073.81
2023-05-03T10:40:11.626Z,97977.56
2023-05-03T10:42:40.424Z,98062.81
2023-05-03T10:45:12.243Z,98032.94
2023-05-03T10:47:40.910Z,98071.69
2023-05-03T10:50:28.742Z,98070.00
2023-05-03T10:52:56.956Z,98071.47
2023-05-03T10:55:26.863Z,98076.50
2023-05-03T10:57:56.673Z,98065.97
2023-05-03T11:00:31.389Z,98043.91
2023-05-03T11:03:13.197Z,98058.59
2023-05-03T11:05:41.622Z,98065.03
2023-05-03T11:08:14.120Z,98072.94
2023-05-03T11:10:44.877Z,98030.44
2023-05-03T11:13:13.219Z,98047.09
2023-05-03T11:15:41.816Z,98068.63
2023-05-03T11:18:11.612Z,98073.09
2023-05-03T11:20:39.929Z,98064.75
2023-05-03T11:23:08.596Z,98056.06
2023-05-03T11:25:36.999Z,98045.44
2023-05-03T11:28:07.250Z,98053.47
2023-05-03T11:30:37.395Z,97987.31
2023-05-03T11:33:06.045Z,98037.88
2023-05-03T11:35:34.371Z,98020.88
2023-05-03T11:38:03.119Z,98062.34
2023-05-03T11:40:31.664Z,98084.19
2023-05-03T11:43:01.084Z,98094.78
2023-05-03T11:45:34.278Z,98087.28
2023-05-03T11:48:02.886Z,98086.88
2023-05-03T11:50:46.736Z,98051.38
2023-05-03T11:53:15.662Z,98077.72
2023-05-03T11:55:46.410Z,98067.66
2023-05-03T11:58:15.456Z,98087.94
2023-05-03T12:00:47.429Z,98087.06
2023-05-03T12:03:20.283Z,98076.38
2023-05-03T12:05:50.122Z,98003.88
2023-05-03T12:08:20.876Z,98096.19
2023-05-03T12:10:53.773Z,98072.38
2023-05-03T12:13:29.886Z,98092.47
2023-05-03T12:16:11.529Z,98068.78
2023-05-03T12:18:50.297Z,98081.84
2023-05-03T12:23:51.872Z,98055.53
2023-05-03T12:26:21.586Z,97975.97
2023-05-03T12:28:50.684Z,98098.13
2023-05-03T12:31:22.737Z,98081.66
2023-05-03T12:36:25.842Z,98093.44
2023-05-03T12:38:56.507Z,98094.34
2023-05-03T12:42:03.617Z,98059.78
2023-05-03T12:44:17.242Z,98087.38
2023-05-03T12:46:47.205Z,98084.00
2023-05-03T12:49:15.880Z,98051.97
2023-05-03T12:51:50.901Z,98070.28
2023-05-03T12:54:33.798Z,97953.44
2023-05-03T12:57:08.524Z,98065.47
2023-05-03T12:59:41.674Z,98076.88
2023-05-03T13:04:56.714Z,98069.66
2023-05-03T13:07:29.544Z,98068.09
2023-05-03T13:12:33.435Z,98056.91
2023-05-03T13:15:04.055Z,98041.56
2023-05-03T13:17:34.184Z,98051.47
2023-05-03T13:20:02.710Z,98073.72
2023-05-03T13:22:32.002Z,98067.88
2023-05-03T13:25:00.335Z,98074.19
2023-05-03T13:27:28.719Z,98073.38
2023-05-03T13:29:57.252Z,98053.72
2023-05-03T13:32:25.858Z,98066.97
2023-05-03T13:34:55.511Z,98054.69
2023-05-03T13:37:24.791Z,98062.25
2023-05-03T13:39:53.190Z,98039.97
2023-05-03T13:42:21.368Z,98041.47
2023-05-03T13:44:49.597Z,98060.63
2023-05-03T13:47:17.805Z,97961.44
2023-05-03T13:49:46.130Z,98016.31
2023-05-03T13:52:16.025Z,98047.56
2023-05-03T13:54:44.515Z,98032.00
2023-05-03T13:57:12.811Z,98048.59
2023-05-03T13:59:41.630Z,98046.44
2023-05-03T14:02:10.008Z,98041.44
2023-05-03T14:04:38.382Z,98047.63
2023-05-03T14:07:06.818Z,97875.72
2023-05-03T14:09:39.574Z,98051.31
2023-05-03T14:12:09.381Z,98050.25
2023-05-03T14:14:38.867Z,98055.94
2023-05-03T14:17:08.349Z,98040.91
2023-05-03T14:19:37.696Z,98064.59
2023-05-03T14:22:05.982Z,98063.16
2023-05-03T14:24:34.226Z,98066.34
2023-05-03T14:27:04.145Z,98065.75
2023-05-03T14:29:32.437Z,98066.06
2023-05-03T14:32:01.308Z,98046.34
2023-05-03T14:34:30.250Z,98068.19
2023-05-03T14:36:58.570Z,97978.09
2023-05-03T14:39:26.873Z,98069.09
2023-05-03T14:41:56.490Z,98048.38
2023-05-03T14:44:28.105Z,98054.28
2023-05-03T14:46:58.824Z,98062.59
2023-05-03T14:49:27.336Z,98032.09
2023-05-03T14:51:55.626Z,98066.13
2023-05-03T14:54:24.339Z,98072.06
2023-05-03T14:56:52.574Z,98067.13
2023-05-03T14:59:21.028Z,98073.22
2023-05-03T15:01:53.787Z,98081.31
2023-05-03T15:04:23.772Z,98074.50
2023-05-03T15:06:52.075Z,98077.78
2023-05-03T15:09:20.759Z,97972.88
2023-05-03T15:11:49.036Z,98077.78
2023-05-03T15:14:17.632Z,98069.09
2023-05-03T15:16:46.156Z,98073.91
2023-05-03T15:19:16.340Z,98079.66
2023-05-03T15:21:48.351Z,98077.06
2023-05-03T15:24:16.920Z,98043.91
2023-05-03T15:26:45.267Z,98074.81
2023-05-03T15:29:13.676Z,98038.94
2023-05-03T15:31:42.924Z,98081.97
2023-05-03T15:34:12.649Z,98079.53
2023-05-03T15:36:42.474Z,98075.44
2023-05-03T15:39:10.759Z,98080.72
2023-05-03T15:41:39.008Z,98079.63
2023-05-03T15:44:09.818Z,98080.00
2023-05-03T15:46:40.137Z,98079.22
2023-05-03T15:49:10.761Z,98081.75
2023-05-03T15:51:39.482Z,98086.22
2023-05-03T15:54:09.334Z,98072.75
2023-05-03T15:56:37.940Z,98058.19
2023-05-03T15:59:06.244Z,98074.28
2023-05-03T16:01:34.622Z,98090.13
2023-05-03T16:04:02.869Z,98098.03
2023-05-03T16:06:31.104Z,98091.88
2023-05-03T16:08:59.341Z,98062.88
2023-05-03T16:11:28.892Z,98083.56
2023-05-03T16:13:57.241Z,98071.25
2023-05-03T16:16:25.559Z,98083.03
2023-05-03T16:18:53.943Z,98036.66
2023-05-03T16:21:22.366Z,98068.69
2023-05-03T16:23:51.209Z,98067.81
2023-05-03T16:26:19.611Z,98074.00
2023-05-03T16:28:50.122Z,98078.91
2023-05-03T16:31:18.584Z,98060.88
2023-05-03T16:33:46.972Z,98060.31
2023-05-03T16:36:19.990Z,98082.66
2023-05-03T16:38:48.784Z,97944.03
2023-05-03T16:41:17.133Z,97991.97
2023-05-03T16:43:45.362Z,98065.03
2023-05-03T16:46:15.041Z,98043.78
2023-05-03T16:48:43.304Z,98070.53
2023-05-03T16:51:11.431Z,98064.03
2023-05-03T16:53:39.685Z,98059.53
2023-05-03T16:56:08.219Z,98078.44
2023-05-03T16:58:36.475Z,98072.66
2023-05-03T17:01:04.768Z,98078.94
2023-05-03T17:03:34.496Z,98014.81
2023-05-03T17:06:03.859Z,98085.25
2023-05-03T17:08:32.969Z,98080.63
2023-05-03T17:11:02.433Z,98090.31
2023-05-03T17:13:30.693Z,98079.22
2023-05-03T17:15:58.951Z,97982.50
2023-05-03T17:18:27.517Z,98089.13
2023-05-03T17:21:02.132Z,98096.44
2023-05-03T17:23:30.506Z,98044.78
2023-05-03T17:25:59.438Z,98096.59
2023-05-03T17:28:28.135Z,98055.41
2023-05-03T17:30:56.326Z,98052.16
2023-05-03T17:33:25.397Z,98052.06
2023-05-03T17:35:53.740Z,98100.88
2023-05-03T17:38:23.452Z,97947.75
2023-05-03T17:40:51.830Z,98108.78
2023-05-03T17:43:20.134Z,98098.66
2023-05-03T17:45:48.507Z,98085.78
2023-05-03T17:48:16.930Z,98033.19
2023-05-03T17:50:46.329Z,98039.38
2023-05-03T17:53:14.609Z,98126.59
2023-05-03T17:55:44.267Z,98123.81
2023-05-03T17:58:12.497Z,98127.47
2023-05-03T18:00:40.886Z,98097.72
2023-05-03T18:03:10.610Z,98072.06
2023-05-03T18:05:38.968Z,98134.13
2023-05-03T18:08:07.560Z,98133.44
2023-05-03T18:10:36.138Z,98121.63
2023-05-03T18:13:05.938Z,98128.34
2023-05-03T18:15:34.453Z,98097.53
2023-05-03T18:18:02.781Z,98062.94
2023-05-03T18:20:31.129Z,98080.75
2023-05-03T18:22:59.461Z,98132.31
2023-05-03T18:25:27.950Z,98138.72
2023-05-03T18:27:57.393Z,98153.50
2023-05-03T18:30:28.400Z,98136.47
2023-05-03T18:32:56.859Z,98158.16
2023-05-03T18:35:25.122Z,98157.22
2023-05-03T18:37:54.074Z,98162.66
2023-05-03T18:40:22.578Z,98083.50
2023-05-03T18:42:50.842Z,98155.03
2023-05-03T18:45:20.387Z,98130.31
2023-05-03T18:47:50.169Z,98171.81
2023-05-03T18:50:18.433Z,98176.13
2023-05-03T18:52:46.728Z,98144.94
2023-05-03T18:55:15.047Z,98168.28
2023-05-03T18:57:44.459Z,98182.22
2023-05-03T19:00:14.061Z,98143.47
2023-05-03T19:02:42.494Z,98185.91
2023-05-03T19:05:14.116Z,98145.53
2023-05-03T19:07:43.188Z,98170.91
2023-05-03T19:10:11.827Z,97900.28
2023-05-03T19:12:40.908Z,98183.69
2023-05-03T19:15:10.214Z,98172.53
2023-05-03T19:17:40.516Z,98172.69
2023-05-03T19:20:12.136Z,98182.19
2023-05-03T19:22:40.663Z,98185.78
2023-05-03T19:25:09.900Z,98139.97
2023-05-03T19:27:38.179Z,98182.31
2023-05-03T19:30:07.934Z,98140.28
2023-05-03T19:32:39.205Z,98188.72
2023-05-03T19:35:09.712Z,98111.19
2023-05-03T19:37:39.480Z,98171.13
2023-05-03T19:40:08.633Z,98183.28
2023-05-03T19:42:37.116Z,98102.22
2023-05-03T19:45:06.058Z,98194.81
2023-05-03T19:47:34.432Z,98172.34
2023-05-03T19:50:03.087Z,98189.72
2023-05-03T19:52:31.721Z,98194.22
2023-05-03T19:55:02.555Z,98052.00
2023-05-03T19:57:30.749Z,98190.84
2023-05-03T19:59:58.974Z,98193.75
2023-05-03T20:02:27.452Z,98185.88
2023-05-03T20:04:55.808Z,98154.81
2023-05-03T20:07:24.093Z,98168.59
2023-05-03T20:09:52.459Z,98183.97
2023-05-03T20:12:22.132Z,98148.63
2023-05-03T20:14:51.628Z,98185.69
2023-05-03T20:17:20.049Z,98184.75
2023-05-03T20:23:29.936Z,98160.25
2023-05-03T20:26:31.064Z,98188.16
2023-05-03T20:29:02.222Z,98091.59
2023-05-03T20:31:31.686Z,98157.16
2023-05-03T20:34:00.739Z,98130.97
2023-05-03T20:36:31.648Z,98186.03
2023-05-03T20:38:59.861Z,98187.69
2023-05-03T20:41:28.159Z,98180.59
2023-05-03T20:43:56.368Z,98178.75
2023-05-03T20:46:26.198Z,98179.75
2023-05-03T20:48:55.339Z,98182.38
2023-05-03T20:51:24.707Z,98173.56
2023-05-03T20:53:53.196Z,98174.47
2023-05-03T20:56:21.303Z,98176.13
2023-05-03T20:59:04.013Z,98150.22
2023-05-03T21:01:33.843Z,98176.38
2023-05-03T21:04:03.109Z,98173.81
2023-05-03T21:06:31.325Z,98154.88
2023-05-03T21:09:00.972Z,98143.78
2023-05-03T21:11:29.177Z,98150.63
2023-05-03T21:13:58.141Z,98167.91
2023-05-03T21:16:28.024Z,98164.25
2023-05-03T21:18:57.714Z,98159.75
2023-05-03T21:21:26.117Z,98159.75
2023-05-03T21:23:54.279Z,98168.59
2023-05-03T21:26:23.017Z,98022.00
2023-05-03T21:28:51.715Z,98150.59
2023-05-03T21:31:20.115Z,98163.59
2023-05-03T21:33:48.605Z,98156.66
2023-05-03T21:36:18.229Z,98168.09
2023-05-03T21:38:46.598Z,98139.44
2023-05-03T21:41:14.886Z,98171.56
2023-05-03T21:43:43.104Z,98154.94
2023-05-03T21:46:12.518Z,98149.06
2023-05-03T21:48:41.155Z,98163.81
2023-05-03T21:51:09.961Z,98153.44
2023-05-03T21:53:39.695Z,98172.66
2023-05-03T21:56:08.153Z,98160.00
2023-05-03T21:58:36.326Z,98168.88
2023-05-03T22:01:04.646Z,98163.81
2023-05-03T22:03:33.091Z,98165.56
2023-05-03T22:06:19.562Z,98123.38
2023-05-03T22:08:49.885Z,98166.47
2023-05-03T22:11:18.082Z,98163.09
2023-05-03T22:14:03.005Z,98134.75
2023-05-03T22:16:34.953Z,98167.69
2023-05-03T22:19:03.317Z,98165.09
2023-05-03T22:21:32.187Z,98151.31
2023-05-03T22:24:01.948Z,98169.50
2023-05-03T22:26:30.083Z,98159.22
2023-05-03T22:28:58.356Z,98145.44
2023-05-03T22:31:26.911Z,98158.41
2023-05-03T22:33:55.149Z,98160.13
2023-05-03T22:36:23.501Z,98165.47
2023-05-03T22:38:55.326Z,98154.47
2023-05-03T22:41:25.326Z,98162.19
2023-05-03T22:43:53.696Z,98140.59
2023-05-03T22:46:22.042Z,98166.41
2023-05-03T22:48:50.175Z,98141.28
2023-05-03T22:51:18.426Z,98156.03
2023-05-03T22:53:46.664Z,98150.03
2023-05-03T22:56:15.833Z,98151.88
2023-05-03T22:58:45.680Z,98168.19
2023-05-03T23:01:15.058Z,98145.75
2023-05-03T23:03:43.803Z,98163.72
2023-05-03T23:06:12.049Z,98159.31
2023-05-03T23:08:40.274Z,98166.38
2023-05-03T23:11:08.765Z,98173.16
2023-05-03T23:13:37.057Z,98155.19
2023-05-03T23:16:08.109Z,98156.97
2023-05-03T23:18:36.335Z,98163.06
2023-05-03T23:21:04.787Z,98167.47
2023-05-03T23:23:32.946Z,98142.06
2023-05-03T23:26:01.176Z,98126.38
2023-05-03T23:28:29.725Z,98135.00
2023-05-03T23:30:58.354Z,98151.63
2023-05-03T23:33:28.560Z,98151.72
2023-05-03T23:35:56.926Z,98155.19
2023-05-03T23:38:25.177Z,98153.53
2023-05-03T23:40:53.375Z,98149.94
2023-05-03T23:43:21.599Z,98143.97
2023-05-03T23:45:49.853Z,98124.16
2023-05-03T23:48:18.061Z,98131.84
2023-05-03T23:50:47.623Z,98129.94
2023-05-03T23:53:15.810Z,98143.81
2023-05-03T23:55:43.922Z,98145.22
2023-05-03T23:58:12.155Z,98138.41
